サル島 の空港の天気 - METARとTAF

アミルカル・カブラル国際空港 ( GVAC / SID ) - カーボベルデ サル島
飛行場実況気象(Metar)
観測時間07/16 05:00 CVT (07/16 06:00 UTC)
風向・風速北 5m/s
視程10km以上
天気現象
全天の8割程度の雲 雲底高度 430m
気温23℃
湿度83%
気圧1015hPa
METARGVAC 160600Z 36010KT 9999 BKN014 23/20 Q1015 NOSIG
過去の天気等 Google飛行場航空写真 Wunderground天気予報

過去48時間のMETAR

飛行場予報(TAF)
発表時間: 7/16 04:00 CVT (7/16 05:00 UTC)
予報対象時間: 16日5時 CVT ~ 17日11時 CVT
風向・風速北 9m/s
視程9000m
全天の4割程度の雲 雲底高度 430m
16日11時 CVT ~ 16日17時 CVT に 確率 40% で一時的に
風向・風速北 10m/s 瞬間風速 16m/s
TAF GVAC 160500Z 1606/1712 36018KT 9000 SCT014
PROB40 TEMPO 1612/1618 35020G32KT